Time;durP1;ratioP1;P1;durP2;ratioP2;P2;SDS_P1;SDS_P2;PMS_P1;PMS_P2;Temp;Humidity;BMP_temperature;BMP_pressure;BME280_temperature;BME280_humidity;BME280_pressure;Samples;Min_cycle;Max_cycle;Signal;HPM_P1;HPM_P2
2023/08/01 00:00:48;;;;;;;12.65;8.90;;;15.90;99.90;;;;;;6130200;23;20013;-91
2023/08/01 00:03:14;;;;;;;17.42;9.52;;;15.90;99.90;;;;;;6130814;23;20017;-91
2023/08/01 00:05:44;;;;;;;18.15;12.63;;;15.90;99.90;;;;;;6105614;23;20100;-91
2023/08/01 00:08:14;;;;;;;20.10;13.25;;;15.90;99.90;;;;;;6106185;23;20481;-91
2023/08/01 00:10:40;;;;;;;23.35;12.35;;;15.90;99.90;;;;;;6130161;23;20018;-91
2023/08/01 00:13:09;;;;;;;19.08;11.82;;;15.90;99.90;;;;;;6105914;23;20028;-91
2023/08/01 00:15:35;;;;;;;14.73;9.70;;;16.00;99.90;;;;;;6105466;23;20092;-92
2023/08/01 00:18:01;;;;;;;13.77;10.23;;;15.90;99.90;;;;;;6106208;23;20048;-91
2023/08/01 00:20:27;;;;;;;14.35;9.43;;;15.90;99.90;;;;;;6130697;23;20018;-91
2023/08/01 00:22:57;;;;;;;14.57;9.80;;;15.90;99.90;;;;;;6080670;23;20017;-91
2023/08/01 00:25:23;;;;;;;15.40;9.02;;;15.80;99.90;;;;;;6130276;23;20427;-91
2023/08/01 00:27:49;;;;;;;12.85;8.75;;;15.80;99.90;;;;;;6155571;23;20017;-91
2023/08/01 00:30:17;;;;;;;16.33;8.27;;;15.80;99.90;;;;;;6130981;23;20049;-91
2023/08/01 00:32:43;;;;;;;14.05;8.43;;;15.30;99.90;;;;;;6155813;23;20021;-90
2023/08/01 00:35:08;;;;;;;10.38;8.02;;;15.90;99.90;;;;;;6130249;23;20022;-91
2023/08/01 00:37:37;;;;;;;12.65;8.45;;;15.80;99.90;;;;;;6130200;23;20080;-91
2023/08/01 00:40:05;;;;;;;16.88;8.43;;;15.80;99.90;;;;;;6105318;23;20014;-90
2023/08/01 00:42:37;;;;;;;13.80;7.57;;;15.80;99.90;;;;;;6130174;23;20018;-91
2023/08/01 00:45:05;;;;;;;13.55;7.45;;;15.20;99.90;;;;;;6156694;23;20032;-90
2023/08/01 00:47:34;;;;;;;14.13;8.43;;;15.80;99.90;;;;;;6105813;23;20120;-90
2023/08/01 00:50:01;;;;;;;13.55;8.63;;;15.80;99.90;;;;;;6129201;23;20017;-91
2023/08/01 00:52:28;;;;;;;14.52;8.75;;;15.70;99.90;;;;;;6129493;23;20014;-91
2023/08/01 00:54:55;;;;;;;15.13;7.40;;;16.30;99.90;;;;;;6104652;23;20045;-91
2023/08/01 00:57:21;;;;;;;8.27;4.68;;;15.70;99.90;;;;;;6129994;23;20013;-92
2023/08/01 00:59:49;;;;;;;6.10;5.18;;;15.60;99.90;;;;;;6155694;23;20103;-92
2023/08/01 01:02:15;;;;;;;9.07;4.60;;;15.60;99.90;;;;;;6105599;23;20028;-92
2023/08/01 01:04:46;;;;;;;9.00;4.85;;;15.50;99.90;;;;;;6129700;23;20021;-91
2023/08/01 01:07:19;;;;;;;7.95;3.97;;;15.40;99.90;;;;;;6130514;23;20047;-92
2023/08/01 01:09:45;;;;;;;7.20;4.40;;;14.30;99.90;;;;;;6105342;23;20117;-92
2023/08/01 01:12:11;;;;;;;8.18;4.70;;;15.40;99.90;;;;;;6156147;23;20446;-92
2023/08/01 01:14:36;;;;;;;8.73;4.00;;;15.20;99.90;;;;;;6105694;23;20400;-92
2023/08/01 01:17:02;;;;;;;6.27;4.83;;;15.20;99.90;;;;;;6129720;23;20021;-92
2023/08/01 01:19:30;;;;;;;9.95;3.85;;;15.20;99.90;;;;;;6105379;23;20044;-92
2023/08/01 01:22:00;;;;;;;7.05;4.43;;;15.10;99.90;;;;;;6105301;23;20636;-92
2023/08/01 01:24:29;;;;;;;24.15;5.70;;;15.20;99.90;;;;;;6129861;23;20013;-91
2023/08/01 01:26:59;;;;;;;10.75;4.45;;;15.10;99.90;;;;;;6129207;23;20024;-92
2023/08/01 01:29:27;;;;;;;6.18;4.40;;;15.10;99.90;;;;;;6105193;23;20025;-92
2023/08/01 01:31:56;;;;;;;10.23;3.97;;;15.00;99.90;;;;;;6105642;23;20543;-93
2023/08/01 01:34:23;;;;;;;6.07;3.50;;;15.00;99.90;;;;;;6105779;23;20026;-93
2023/08/01 01:36:48;;;;;;;7.70;4.15;;;15.10;99.90;;;;;;6129755;23;20018;-94
2023/08/01 01:39:14;;;;;;;9.10;5.03;;;15.00;99.90;;;;;;6130223;23;20473;-94
2023/08/01 01:41:40;;;;;;;12.83;5.87;;;14.90;99.90;;;;;;6105860;23;20028;-94
2023/08/01 01:44:06;;;;;;;7.72;4.20;;;15.00;99.90;;;;;;6104795;23;20260;-94
2023/08/01 01:46:32;;;;;;;6.55;3.67;;;15.00;99.90;;;;;;6105326;23;20025;-93
2023/08/01 01:48:58;;;;;;;10.65;4.65;;;15.00;99.90;;;;;;6130049;23;20018;-93
2023/08/01 01:51:32;;;;;;;9.25;4.70;;;15.00;99.90;;;;;;6130967;23;20021;-94
2023/08/01 01:54:00;;;;;;;13.90;5.05;;;15.10;99.90;;;;;;6081356;23;20029;-93
2023/08/01 01:56:26;;;;;;;12.82;5.45;;;15.00;99.90;;;;;;6129329;23;20096;-93
2023/08/01 01:58:52;;;;;;;10.43;4.68;;;15.10;99.90;;;;;;6105194;23;20115;-94
2023/08/01 02:01:18;;;;;;;9.80;4.85;;;15.00;99.90;;;;;;6130948;23;20092;-93
2023/08/01 02:03:44;;;;;;;8.57;4.38;;;15.00;99.90;;;;;;6130251;23;20014;-94
2023/08/01 02:06:09;;;;;;;6.10;4.38;;;15.00;99.90;;;;;;6105328;23;20017;-93
2023/08/01 02:08:38;;;;;;;11.15;4.40;;;15.00;99.90;;;;;;6105859;23;20056;-93
2023/08/01 02:11:03;;;;;;;9.35;5.63;;;15.00;99.90;;;;;;6155133;23;20022;-93
2023/08/01 02:13:32;;;;;;;11.95;6.43;;;15.00;99.90;;;;;;6081916;23;20040;-93
2023/08/01 02:15:58;;;;;;;9.70;5.15;;;15.00;99.90;;;;;;6129837;23;20331;-93
2023/08/01 02:18:25;;;;;;;11.93;5.55;;;15.00;99.90;;;;;;6105892;23;20017;-93
2023/08/01 02:20:51;;;;;;;14.23;6.72;;;15.00;99.90;;;;;;6129852;23;20024;-93
2023/08/01 02:23:17;;;;;;;12.18;7.47;;;15.00;99.90;;;;;;6105244;23;20045;-93
2023/08/01 02:25:45;;;;;;;12.88;7.57;;;15.00;99.90;;;;;;6105624;23;20024;-93
2023/08/01 02:28:13;;;;;;;11.35;7.65;;;15.00;99.90;;;;;;6129533;23;20072;-93
2023/08/01 02:30:39;;;;;;;14.20;7.28;;;15.10;99.90;;;;;;6129790;23;20029;-93
2023/08/01 02:33:05;;;;;;;13.32;8.10;;;14.90;99.90;;;;;;6105069;23;20017;-93
2023/08/01 02:35:31;;;;;;;15.32;8.05;;;15.00;99.90;;;;;;6105630;23;20040;-93
2023/08/01 02:37:57;;;;;;;15.00;7.80;;;15.00;99.90;;;;;;6129468;23;20021;-93
2023/08/01 02:40:25;;;;;;;17.70;8.70;;;14.90;99.90;;;;;;6105566;23;20017;-93
2023/08/01 02:42:51;;;;;;;15.88;8.73;;;15.00;99.90;;;;;;6105688;23;20021;-92
2023/08/01 02:45:17;;;;;;;11.10;7.40;;;14.90;99.90;;;;;;6105597;23;20017;-92
2023/08/01 02:47:43;;;;;;;12.63;7.28;;;14.90;99.90;;;;;;6105066;23;20026;-93
2023/08/01 02:50:09;;;;;;;9.50;5.30;;;14.90;99.90;;;;;;6129177;23;20108;-92
2023/08/01 02:52:34;;;;;;;14.02;7.63;;;14.90;99.90;;;;;;6129361;23;20018;-92
2023/08/01 02:55:00;;;;;;;15.25;6.95;;;14.90;99.90;;;;;;6129504;23;20014;-92
2023/08/01 02:57:31;;;;;;;10.88;6.10;;;14.90;99.90;;;;;;6105496;23;20024;-92
2023/08/01 02:59:56;;;;;;;21.33;7.63;;;15.00;99.90;;;;;;6129570;23;20025;-94
2023/08/01 03:02:22;;;;;;;17.20;8.90;;;14.90;99.90;;;;;;6129732;23;20025;-93
2023/08/01 03:04:57;;;;;;;9.77;6.97;;;14.90;99.90;;;;;;6105498;23;20249;-93
2023/08/01 03:07:22;;;;;;;16.85;6.90;;;14.90;99.90;;;;;;6128263;23;20772;-93
2023/08/01 03:09:49;;;;;;;11.18;6.47;;;14.80;99.90;;;;;;6128270;23;20053;-93
2023/08/01 03:12:14;;;;;;;14.57;7.65;;;14.90;99.90;;;;;;6103468;23;20108;-93
2023/08/01 03:14:43;;;;;;;15.57;8.60;;;14.90;99.90;;;;;;6128803;23;20045;-92
2023/08/01 03:17:09;;;;;;;16.77;8.40;;;14.90;99.90;;;;;;6127638;23;20017;-92
2023/08/01 03:19:34;;;;;;;15.90;8.45;;;14.90;99.90;;;;;;6103899;23;20080;-93
2023/08/01 03:22:03;;;;;;;17.55;8.13;;;14.90;99.90;;;;;;6129156;23;20017;-92
2023/08/01 03:24:29;;;;;;;17.05;8.85;;;14.90;99.90;;;;;;6129406;23;20316;-92
2023/08/01 03:26:54;;;;;;;14.05;7.10;;;14.90;99.90;;;;;;6081627;23;20029;-92
2023/08/01 03:29:22;;;;;;;16.50;6.95;;;15.00;99.90;;;;;;6105660;23;20017;-92
2023/08/01 03:31:48;;;;;;;11.18;6.93;;;14.90;99.90;;;;;;6130683;23;20033;-93
2023/08/01 03:34:14;;;;;;;13.50;6.88;;;14.90;99.90;;;;;;6106080;23;20030;-93
2023/08/01 03:36:40;;;;;;;9.18;5.50;;;14.90;99.90;;;;;;6083029;23;20025;-91
2023/08/01 03:39:05;;;;;;;13.00;6.20;;;14.90;99.90;;;;;;6130436;23;20017;-92
2023/08/01 03:41:34;;;;;;;10.27;5.30;;;14.90;99.90;;;;;;6106853;23;20014;-92
2023/08/01 03:44:02;;;;;;;11.43;5.43;;;14.90;99.90;;;;;;6106038;23;20025;-92
2023/08/01 03:46:28;;;;;;;7.90;5.57;;;14.80;99.90;;;;;;6131570;23;20018;-94
2023/08/01 03:48:54;;;;;;;13.40;5.85;;;14.80;99.90;;;;;;6131564;23;20014;-93
2023/08/01 03:51:20;;;;;;;8.95;4.45;;;14.80;99.90;;;;;;6130689;23;20022;-93
2023/08/01 03:53:49;;;;;;;8.82;3.63;;;14.80;99.90;;;;;;6130282;23;20023;-93
2023/08/01 03:56:15;;;;;;;9.55;4.25;;;14.80;99.90;;;;;;6106768;23;20021;-93
2023/08/01 03:58:43;;;;;;;4.60;3.05;;;14.80;99.90;;;;;;6107492;23;20516;-93
2023/08/01 04:01:09;;;;;;;9.35;4.07;;;14.70;99.90;;;;;;6129357;23;20069;-93
2023/08/01 04:03:44;;;;;;;7.13;2.92;;;14.70;99.90;;;;;;6106507;23;20013;-95
2023/08/01 04:06:15;;;;;;;6.13;3.13;;;14.80;99.90;;;;;;6130086;23;20096;-93
2023/08/01 04:08:43;;;;;;;13.38;5.78;;;14.10;99.90;;;;;;6130502;23;20018;-93
2023/08/01 04:11:11;;;;;;;7.35;3.22;;;14.70;99.90;;;;;;6130447;23;20021;-93
2023/08/01 04:13:36;;;;;;;10.15;3.33;;;14.70;99.90;;;;;;6130274;23;20025;-94
2023/08/01 04:16:02;;;;;;;6.30;2.78;;;14.70;99.90;;;;;;6129845;23;20022;-93
2023/08/01 04:18:28;;;;;;;10.90;3.83;;;13.60;99.90;;;;;;6104725;23;20025;-92
2023/08/01 04:20:54;;;;;;;6.43;2.70;;;14.70;99.90;;;;;;6105558;23;20050;-92
2023/08/01 04:23:22;;;;;;;4.80;2.67;;;14.60;99.90;;;;;;6128662;23;20323;-92
2023/08/01 04:25:48;;;;;;;8.10;2.58;;;14.60;99.90;;;;;;6155951;23;20040;-93
2023/08/01 04:28:15;;;;;;;4.00;2.97;;;14.60;99.90;;;;;;6129532;23;20446;-93
2023/08/01 04:30:41;;;;;;;6.55;2.97;;;14.60;99.90;;;;;;6130865;23;20020;-92
2023/08/01 04:33:07;;;;;;;4.35;2.33;;;14.60;99.90;;;;;;6130134;23;20018;-91
2023/08/01 04:35:33;;;;;;;6.50;2.60;;;14.60;99.90;;;;;;6106712;23;20526;-93
2023/08/01 04:37:59;;;;;;;5.50;2.58;;;14.50;99.90;;;;;;6130923;23;20022;-92
2023/08/01 04:40:27;;;;;;;5.78;2.42;;;14.50;99.90;;;;;;6106970;23;20130;-93
2023/08/01 04:42:53;;;;;;;8.10;2.35;;;14.50;99.90;;;;;;6131182;23;20046;-93
2023/08/01 04:45:22;;;;;;;3.92;2.10;;;14.50;99.90;;;;;;6106370;23;20076;-93
2023/08/01 04:47:48;;;;;;;2.88;1.90;;;14.40;99.90;;;;;;6130936;23;20033;-93
2023/08/01 04:50:14;;;;;;;3.43;2.23;;;14.40;99.90;;;;;;6106032;23;20017;-93
2023/08/01 04:52:42;;;;;;;6.15;2.40;;;14.40;99.90;;;;;;6130611;23;20269;-92
2023/08/01 04:55:17;;;;;;;7.50;2.50;;;14.40;99.90;;;;;;6130533;23;20013;-91
2023/08/01 04:57:45;;;;;;;3.65;2.08;;;14.40;99.90;;;;;;6109091;23;20069;-93
2023/08/01 05:00:11;;;;;;;3.60;2.28;;;14.40;99.90;;;;;;6128962;23;20017;-93
2023/08/01 05:02:37;;;;;;;4.35;2.33;;;14.40;99.90;;;;;;6105843;23;20439;-93
2023/08/01 05:05:03;;;;;;;3.13;1.95;;;14.40;99.90;;;;;;6130522;23;20024;-93
2023/08/01 05:07:30;;;;;;;7.47;2.50;;;14.40;99.90;;;;;;6129752;23;20021;-92
2023/08/01 05:09:56;;;;;;;7.97;2.30;;;14.40;99.90;;;;;;6129899;23;20320;-93
2023/08/01 05:12:21;;;;;;;4.82;1.83;;;13.30;99.90;;;;;;6128696;23;20024;-93
2023/08/01 05:14:47;;;;;;;3.25;2.15;;;14.40;99.90;;;;;;6129384;23;20017;-93
2023/08/01 05:17:13;;;;;;;4.23;2.40;;;14.40;99.90;;;;;;6080315;23;20104;-93
2023/08/01 05:19:39;;;;;;;6.13;2.17;;;14.30;99.90;;;;;;6104914;23;20307;-93
2023/08/01 05:22:05;;;;;;;4.32;1.88;;;14.40;99.90;;;;;;6129114;23;20446;-92
2023/08/01 05:24:31;;;;;;;4.25;2.15;;;14.40;99.90;;;;;;6128533;23;20108;-92
2023/08/01 05:26:57;;;;;;;4.97;2.47;;;14.40;99.90;;;;;;6127856;23;20057;-91
2023/08/01 05:29:25;;;;;;;4.38;2.22;;;14.50;99.90;;;;;;6127925;23;20253;-92
2023/08/01 05:32:00;;;;;;;;;;;;;;;;;;;;;
2023/08/01 05:34:28;;;;;;;6.05;2.30;;;13.50;99.90;;;;;;6128899;23;20013;-91
2023/08/01 05:36:57;;;;;;;5.45;2.40;;;14.50;99.90;;;;;;6104395;23;20516;-92
2023/08/01 05:39:22;;;;;;;5.82;2.20;;;14.60;99.90;;;;;;6128729;23;20025;-91
2023/08/01 05:41:50;;;;;;;6.93;3.70;;;14.60;99.90;;;;;;6129226;23;20013;-91
2023/08/01 05:44:16;;;;;;;3.20;2.03;;;14.60;99.90;;;;;;6127891;23;20021;-91
2023/08/01 05:46:42;;;;;;;6.63;2.40;;;14.70;99.90;;;;;;6107684;23;20037;-87
2023/08/01 05:49:08;;;;;;;5.18;3.05;;;14.70;99.90;;;;;;6102873;23;20346;-91
2023/08/01 05:51:33;;;;;;;4.80;2.80;;;14.80;99.90;;;;;;6126696;23;20013;-89
2023/08/01 05:54:02;;;;;;;7.20;2.83;;;14.80;99.90;;;;;;6080217;23;20028;-89
2023/08/01 05:56:28;;;;;;;2.95;2.60;;;14.80;99.90;;;;;;6102598;23;20057;-88
2023/08/01 05:58:53;;;;;;;5.00;2.83;;;14.80;99.90;;;;;;6104034;23;20028;-89
2023/08/01 06:01:19;;;;;;;5.53;2.92;;;14.80;99.90;;;;;;6127684;23;20782;-90
2023/08/01 06:03:45;;;;;;;4.82;3.25;;;14.90;99.90;;;;;;6104036;23;20033;-90
2023/08/01 06:06:13;;;;;;;7.43;4.20;;;14.90;99.90;;;;;;6104328;23;20018;-89
2023/08/01 06:08:39;;;;;;;4.70;2.97;;;15.10;99.90;;;;;;6128091;23;20237;-91
2023/08/01 06:11:05;;;;;;;5.90;3.27;;;14.90;99.90;;;;;;6128918;23;20033;-86
2023/08/01 06:13:30;;;;;;;5.20;3.07;;;15.30;99.90;;;;;;6104066;23;20017;-87
2023/08/01 06:15:56;;;;;;;5.35;3.33;;;15.40;99.90;;;;;;6129276;23;20617;-87
2023/08/01 06:18:22;;;;;;;3.67;3.00;;;15.30;99.90;;;;;;6128037;23;20074;-90
2023/08/01 06:20:48;;;;;;;7.00;2.70;;;15.40;99.90;;;;;;6129101;23;20245;-91
2023/08/01 06:23:13;;;;;;;7.30;3.45;;;15.30;99.90;;;;;;6155120;23;20014;-90
2023/08/01 06:25:39;;;;;;;5.33;3.00;;;15.40;99.90;;;;;;6079673;23;20049;-89
2023/08/01 06:28:04;;;;;;;4.60;3.00;;;15.30;99.90;;;;;;6104861;23;20028;-90
2023/08/01 06:30:30;;;;;;;4.83;2.87;;;15.30;99.90;;;;;;6102923;23;20072;-88
2023/08/01 06:32:56;;;;;;;6.55;3.33;;;15.30;99.90;;;;;;6079976;23;20112;-88
2023/08/01 06:35:22;;;;;;;4.32;2.80;;;15.30;99.90;;;;;;6054870;23;20021;-87
2023/08/01 06:37:47;;;;;;;6.03;2.87;;;15.20;99.90;;;;;;6079538;23;20021;-89
2023/08/01 06:40:13;;;;;;;8.67;3.50;;;15.20;99.90;;;;;;6079431;23;20312;-86
2023/08/01 06:42:40;;;;;;;5.17;3.40;;;15.20;99.90;;;;;;6103594;23;20026;-89
2023/08/01 06:45:06;;;;;;;3.72;3.05;;;15.20;99.90;;;;;;6101832;23;20705;-88
2023/08/01 06:47:32;;;;;;;4.88;3.35;;;15.20;99.90;;;;;;6078608;23;20032;-87
2023/08/01 06:49:58;;;;;;;8.63;4.20;;;15.20;99.90;;;;;;6127322;23;20024;-88
2023/08/01 06:52:23;;;;;;;8.37;3.57;;;15.10;99.90;;;;;;6125343;23;20017;-87
2023/08/01 06:54:49;;;;;;;6.33;3.00;;;15.20;99.90;;;;;;6101106;23;20705;-88
2023/08/01 06:57:15;;;;;;;7.23;2.97;;;15.20;99.90;;;;;;6103564;23;20033;-87
2023/08/01 06:59:40;;;;;;;4.87;2.60;;;15.30;99.90;;;;;;6102339;23;20018;-87
2023/08/01 07:02:08;;;;;;;5.03;2.57;;;15.20;99.90;;;;;;6104026;23;20261;-88
2023/08/01 07:04:34;;;;;;;5.15;2.92;;;15.30;99.90;;;;;;6128254;23;20602;-87
2023/08/01 07:07:00;;;;;;;3.50;2.60;;;15.30;99.90;;;;;;6102896;23;20080;-87
2023/08/01 07:09:25;;;;;;;7.43;3.47;;;15.30;99.90;;;;;;6102841;23;20029;-87
2023/08/01 07:11:51;;;;;;;4.80;2.78;;;15.40;99.90;;;;;;6127247;23;20104;-89
2023/08/01 07:14:17;;;;;;;3.83;2.67;;;15.50;99.90;;;;;;6127881;23;20101;-89
2023/08/01 07:16:42;;;;;;;5.07;2.30;;;15.50;99.90;;;;;;6126806;23;20018;-88
2023/08/01 07:19:08;;;;;;;5.47;2.50;;;15.60;99.90;;;;;;6127903;23;20744;-88
2023/08/01 07:21:34;;;;;;;6.87;3.60;;;15.70;99.90;;;;;;6102801;23;20339;-88
2023/08/01 07:23:59;;;;;;;4.73;1.60;;;15.60;99.90;;;;;;6080901;23;20077;-87
2023/08/01 07:26:25;;;;;;;4.13;1.60;;;15.60;99.90;;;;;;6106671;23;20277;-88
2023/08/01 07:28:51;;;;;;;5.95;3.00;;;15.60;99.90;;;;;;6127451;23;20097;-87
2023/08/01 07:31:17;;;;;;;4.10;1.73;;;15.60;99.90;;;;;;6079034;23;20025;-87
2023/08/01 07:33:42;;;;;;;3.47;1.70;;;15.60;99.90;;;;;;6127075;23;20273;-88
2023/08/01 07:36:08;;;;;;;4.80;1.60;;;15.50;99.90;;;;;;6103323;23;20032;-89
2023/08/01 07:38:34;;;;;;;2.17;1.70;;;15.50;99.90;;;;;;6101519;23;20025;-90
2023/08/01 07:41:03;;;;;;;5.13;1.70;;;15.50;99.90;;;;;;6104927;23;20021;-87
2023/08/01 07:43:30;;;;;;;4.28;1.60;;;15.50;99.90;;;;;;6127179;23;20025;-89
2023/08/01 07:45:59;;;;;;;7.50;1.95;;;15.50;99.90;;;;;;6101225;23;20068;-87
2023/08/01 07:48:27;;;;;;;6.47;2.20;;;15.50;99.90;;;;;;6103152;23;20454;-91
2023/08/01 07:50:53;;;;;;;6.28;2.53;;;15.50;99.90;;;;;;6102316;23;20021;-87
2023/08/01 07:53:18;;;;;;;4.03;1.80;;;15.50;99.90;;;;;;6102456;23;20024;-88
2023/08/01 07:55:44;;;;;;;7.57;2.30;;;15.50;99.90;;;;;;6079434;23;20129;-87
2023/08/01 07:58:10;;;;;;;3.10;2.60;;;15.50;99.90;;;;;;6154612;23;20024;-86
2023/08/01 08:00:36;;;;;;;3.90;1.90;;;15.40;99.90;;;;;;6128006;23;20249;-88
2023/08/01 08:03:02;;;;;;;4.78;2.20;;;15.50;99.90;;;;;;6104401;23;20072;-87
2023/08/01 08:05:27;;;;;;;5.65;2.72;;;15.50;99.90;;;;;;6104478;23;20021;-87
2023/08/01 08:07:53;;;;;;;4.50;1.90;;;15.50;99.90;;;;;;6128513;23;20021;-87
2023/08/01 08:10:19;;;;;;;6.10;3.33;;;15.50;99.90;;;;;;6106003;23;20017;-87
2023/08/01 08:12:44;;;;;;;3.72;2.00;;;15.60;99.90;;;;;;6129556;23;20423;-87
2023/08/01 08:15:10;;;;;;;9.50;2.67;;;15.60;99.90;;;;;;6082305;23;20018;-87
2023/08/01 08:17:36;;;;;;;3.55;1.85;;;15.60;99.90;;;;;;6155851;23;20026;-87
2023/08/01 08:20:03;;;;;;;5.38;1.98;;;15.60;99.90;;;;;;6129717;23;20049;-87
2023/08/01 08:22:29;;;;;;;5.43;2.95;;;15.60;99.90;;;;;;6105707;23;20035;-87
2023/08/01 08:24:54;;;;;;;6.53;2.10;;;15.50;99.90;;;;;;6081267;23;20124;-88
2023/08/01 08:27:20;;;;;;;3.22;2.38;;;15.50;99.90;;;;;;6130314;23;20080;-87
2023/08/01 08:29:46;;;;;;;6.47;2.08;;;15.40;99.90;;;;;;6129718;23;20017;-88
2023/08/01 08:32:12;;;;;;;3.40;2.10;;;15.40;99.90;;;;;;6130065;23;20022;-87
2023/08/01 08:34:39;;;;;;;6.10;1.50;;;15.40;99.90;;;;;;6105223;23;20025;-87
2023/08/01 08:37:05;;;;;;;4.47;1.63;;;15.30;99.90;;;;;;6106062;23;20018;-88
2023/08/01 08:39:31;;;;;;;6.82;2.47;;;15.30;99.90;;;;;;6130164;23;20022;-87
2023/08/01 08:41:57;;;;;;;5.20;1.90;;;15.30;99.90;;;;;;6129412;23;20025;-87
2023/08/01 08:44:29;;;;;;;5.18;2.25;;;15.20;99.90;;;;;;6129806;23;20248;-87
2023/08/01 08:46:59;;;;;;;4.63;2.30;;;15.20;99.90;;;;;;6129287;23;20451;-88
2023/08/01 08:49:26;;;;;;;4.85;2.83;;;15.20;99.90;;;;;;6155977;23;20144;-87
2023/08/01 08:51:54;;;;;;;3.78;2.75;;;15.20;99.90;;;;;;6104360;23;20021;-87
2023/08/01 08:54:20;;;;;;;6.60;2.75;;;15.20;99.90;;;;;;6129521;23;20028;-87
2023/08/01 08:56:46;;;;;;;4.38;2.30;;;15.20;99.90;;;;;;6129356;23;20049;-87
2023/08/01 08:59:12;;;;;;;3.83;2.42;;;15.20;99.90;;;;;;6129891;23;20026;-88
2023/08/01 09:01:39;;;;;;;5.38;2.53;;;15.20;99.90;;;;;;6081167;23;20096;-88
2023/08/01 09:04:06;;;;;;;4.03;2.50;;;15.20;99.90;;;;;;6105696;23;20017;-87
2023/08/01 09:06:37;;;;;;;4.95;2.33;;;15.70;99.90;;;;;;6129927;23;20334;-87
2023/08/01 09:09:10;;;;;;;3.78;2.80;;;15.30;99.90;;;;;;6129155;23;20037;-87
2023/08/01 09:11:44;;;;;;;4.25;2.28;;;15.30;99.90;;;;;;6155815;23;20092;-87
2023/08/01 09:14:10;;;;;;;5.50;2.72;;;15.40;99.90;;;;;;6129364;23;20092;-87
2023/08/01 09:16:36;;;;;;;5.03;2.38;;;15.40;99.90;;;;;;6129696;23;20060;-87
2023/08/01 09:19:02;;;;;;;7.53;2.42;;;15.50;99.90;;;;;;6103751;23;20080;-87
2023/08/01 09:21:35;;;;;;;3.55;2.35;;;15.50;99.90;;;;;;6155814;23;20014;-87
2023/08/01 09:24:15;;;;;;;4.78;2.60;;;15.50;99.90;;;;;;6104659;23;20014;-88
2023/08/01 09:26:41;;;;;;;5.10;2.97;;;15.50;99.90;;;;;;6129509;23;20021;-88
2023/08/01 09:29:08;;;;;;;4.30;2.25;;;15.40;99.90;;;;;;6129292;23;20036;-87
2023/08/01 09:31:34;;;;;;;;;;;15.40;99.90;;;;;;6105528;23;20029;-88
2023/08/01 09:34:05;;;;;;;3.22;2.15;;;15.50;99.90;;;;;;6104510;23;19917;-88
2023/08/01 09:36:32;;;;;;;5.40;3.35;;;15.50;99.90;;;;;;6137270;23;20021;-88
2023/08/01 09:38:59;;;;;;;13.82;4.07;;;15.50;99.90;;;;;;6080783;23;20017;-88
2023/08/01 09:41:25;;;;;;;7.30;3.10;;;15.50;99.90;;;;;;6112413;23;20017;-88
2023/08/01 09:43:51;;;;;;;6.35;3.47;;;15.50;99.90;;;;;;6129293;23;20427;-87
2023/08/01 09:46:17;;;;;;;7.15;3.30;;;15.50;99.90;;;;;;6129854;23;20029;-87
2023/08/01 09:48:43;;;;;;;10.63;4.20;;;15.50;99.90;;;;;;6105309;23;20115;-87
2023/08/01 09:51:11;;;;;;;5.85;3.72;;;15.60;99.90;;;;;;6128273;23;20823;-88
2023/08/01 09:53:54;;;;;;;4.35;3.03;;;15.70;99.90;;;;;;6105187;23;20430;-87
2023/08/01 09:56:28;;;;;;;6.32;3.33;;;15.80;99.90;;;;;;6129295;23;20018;-86
2023/08/01 09:58:55;;;;;;;4.80;2.80;;;15.80;99.90;;;;;;6129318;23;20054;-87
2023/08/01 10:01:24;;;;;;;6.70;3.63;;;15.80;99.90;;;;;;6129630;23;20092;-87
2023/08/01 10:03:51;;;;;;;5.97;3.58;;;15.80;99.90;;;;;;6129093;23;20097;-88
2023/08/01 10:06:21;;;;;;;7.95;3.72;;;15.80;99.90;;;;;;6129527;23;20458;-87
2023/08/01 10:08:49;;;;;;;7.28;4.00;;;15.90;99.90;;;;;;6104687;23;20013;-87
2023/08/01 10:11:20;;;;;;;5.95;2.92;;;16.00;99.90;;;;;;6130078;23;20017;-87
2023/08/01 10:13:47;;;;;;;7.85;3.50;;;16.10;99.90;;;;;;6129667;23;20391;-87
2023/08/01 10:16:14;;;;;;;6.25;2.90;;;16.20;99.90;;;;;;6129752;23;20049;-87
2023/08/01 10:18:40;;;;;;;7.35;2.83;;;16.30;99.90;;;;;;6129586;23;20091;-87
2023/08/01 10:21:07;;;;;;;3.35;2.42;;;16.30;99.90;;;;;;6128638;23;20029;-87
2023/08/01 10:23:34;;;;;;;4.18;2.25;;;16.30;99.90;;;;;;6104613;23;20455;-87
2023/08/01 10:26:03;;;;;;;6.55;2.65;;;16.40;99.90;;;;;;6128882;23;20017;-87
2023/08/01 10:28:37;;;;;;;9.30;3.58;;;16.30;99.90;;;;;;6129459;23;20018;-86
2023/08/01 10:31:12;;;;;;;5.25;2.67;;;16.40;99.90;;;;;;6128644;23;20332;-87
2023/08/01 10:33:38;;;;;;;7.63;2.90;;;16.50;99.90;;;;;;6129512;23;20395;-87
2023/08/01 10:36:14;;;;;;;5.68;2.53;;;16.60;99.90;;;;;;6155069;23;20024;-87
2023/08/01 10:38:47;;;;;;;4.00;1.98;;;16.70;99.90;;;;;;6105046;23;20021;-87
2023/08/01 10:41:26;;;;;;;5.10;2.30;;;16.60;99.90;;;;;;6128911;23;20441;-87
2023/08/01 10:44:13;;;;;;;5.47;2.47;;;16.70;99.90;;;;;;6128814;23;20347;-86
2023/08/01 10:46:52;;;;;;;3.78;1.70;;;16.60;99.90;;;;;;6127758;23;20115;-87
2023/08/01 10:49:19;;;;;;;4.43;1.90;;;16.50;99.90;;;;;;6155534;23;20156;-87
2023/08/01 10:51:45;;;;;;;6.10;2.90;;;16.40;99.90;;;;;;6128518;23;20442;-86
2023/08/01 10:54:25;;;;;;;3.95;2.63;;;16.30;99.90;;;;;;6103809;23;20060;-87
2023/08/01 10:56:53;;;;;;;3.33;2.35;;;16.30;99.90;;;;;;6129368;23;20049;-87
2023/08/01 10:59:20;;;;;;;11.07;2.60;;;16.30;99.90;;;;;;6156771;23;20068;-87
2023/08/01 11:01:49;;;;;;;5.03;3.03;;;16.30;99.90;;;;;;6129360;23;20072;-86
2023/08/01 11:04:19;;;;;;;10.18;3.65;;;16.30;99.90;;;;;;6105974;23;20021;-86
2023/08/01 11:06:47;;;;;;;7.32;3.28;;;16.50;99.90;;;;;;6105298;23;20132;-87
2023/08/01 11:09:20;;;;;;;7.00;3.67;;;16.60;99.90;;;;;;6128741;23;20026;-87
2023/08/01 11:11:50;;;;;;;4.22;3.33;;;16.80;99.90;;;;;;6105206;23;20021;-87
2023/08/01 11:14:16;;;;;;;7.60;3.33;;;16.90;99.90;;;;;;6129992;23;20017;-86
2023/08/01 11:16:42;;;;;;;;;;;17.00;99.90;;;;;;6155813;23;20053;-86
2023/08/01 11:19:21;;;;;;;8.00;3.10;;;17.00;99.90;;;;;;6154174;23;19956;-86
2023/08/01 11:21:47;;;;;;;6.45;3.03;;;17.00;99.90;;;;;;6130155;23;20096;-86
2023/08/01 11:24:12;;;;;;;7.65;3.53;;;17.00;99.90;;;;;;6105749;23;20037;-86
2023/08/01 11:26:47;;;;;;;9.07;3.33;;;16.90;99.90;;;;;;6130014;23;20347;-86
2023/08/01 11:29:14;;;;;;;6.70;3.03;;;16.90;99.90;;;;;;6130957;23;20346;-86
2023/08/01 11:31:41;;;;;;;5.63;2.30;;;16.90;99.90;;;;;;6130270;23;20100;-86
2023/08/01 11:34:10;;;;;;;7.13;2.00;;;16.80;99.90;;;;;;6129162;23;20013;-86
2023/08/01 11:36:38;;;;;;;5.10;2.03;;;16.80;99.90;;;;;;6105471;23;20334;-86
2023/08/01 11:39:04;;;;;;;8.90;2.70;;;16.90;99.90;;;;;;6129189;23;20017;-87
2023/08/01 11:41:30;;;;;;;12.30;3.03;;;17.10;99.90;;;;;;6129063;23;20064;-87
2023/08/01 11:44:02;;;;;;;7.90;2.33;;;17.30;99.90;;;;;;6130900;23;20022;-86
2023/08/01 11:46:32;;;;;;;10.10;2.60;;;17.50;99.90;;;;;;6107107;23;20092;-86
2023/08/01 11:49:00;;;;;;;3.92;1.67;;;17.30;99.90;;;;;;6106186;23;20021;-88
2023/08/01 11:51:26;;;;;;;4.70;2.45;;;17.50;99.90;;;;;;6082630;23;20022;-87
2023/08/01 11:54:03;;;;;;;5.72;2.28;;;17.30;99.90;;;;;;6130495;23;20088;-87
2023/08/01 11:56:32;;;;;;;5.07;2.33;;;17.20;99.90;;;;;;6131129;23;20021;-86
2023/08/01 11:58:58;;;;;;;5.35;2.30;;;17.10;99.90;;;;;;6106447;23;20019;-86
2023/08/01 12:01:24;;;;;;;11.32;2.97;;;17.00;99.90;;;;;;6130748;23;20053;-86
2023/08/01 12:03:54;;;;;;;4.63;2.97;;;17.00;99.90;;;;;;6106494;23;20017;-86
2023/08/01 12:06:23;;;;;;;6.05;2.42;;;16.90;99.90;;;;;;6106053;23;20253;-86
2023/08/01 12:08:51;;;;;;;5.32;2.83;;;16.90;99.90;;;;;;6156747;23;20057;-86
2023/08/01 12:11:26;;;;;;;8.35;2.70;;;16.80;99.90;;;;;;6130144;23;20399;-85
2023/08/01 12:14:04;;;;;;;4.55;2.70;;;16.80;99.90;;;;;;6130735;23;20021;-87
2023/08/01 12:16:30;;;;;;;6.15;2.45;;;16.60;99.90;;;;;;6106262;23;20021;-86
2023/08/01 12:18:57;;;;;;;4.55;2.63;;;17.00;99.90;;;;;;6130893;23;20024;-86
2023/08/01 12:21:22;;;;;;;;;;;17.10;99.90;;;;;;6106180;23;20029;-87
2023/08/01 12:23:48;;;;;;;5.45;2.35;;;17.30;99.90;;;;;;6129902;23;19917;-86
2023/08/01 12:26:14;;;;;;;7.13;2.92;;;17.50;99.90;;;;;;6105416;23;20028;-87
2023/08/01 12:28:40;;;;;;;8.23;3.13;;;17.50;99.90;;;;;;6156498;23;20024;-86
2023/08/01 12:31:05;;;;;;;9.05;3.30;;;17.60;99.90;;;;;;6129986;23;20045;-87
2023/08/01 12:33:32;;;;;;;7.47;2.80;;;17.80;99.90;;;;;;6106067;23;20022;-86
2023/08/01 12:36:00;;;;;;;6.38;2.30;;;18.00;99.90;;;;;;6106033;23;20100;-86
2023/08/01 12:38:26;;;;;;;5.40;2.17;;;18.10;99.90;;;;;;6156397;23;20097;-86
2023/08/01 12:40:52;;;;;;;4.75;2.30;;;18.20;99.90;;;;;;6130477;23;20021;-86
2023/08/01 12:43:17;;;;;;;5.65;2.50;;;18.20;99.90;;;;;;6129892;23;20036;-86
2023/08/01 12:45:43;;;;;;;6.03;1.90;;;18.10;97.70;;;;;;6130313;23;20057;-87